Terminal Aerodrome Forecast
Issued by NWS Mt. Holly, NJ

Home | Current Version | Previous Version | Text Only | Print | Product List | Glossary On
Versions: 1 2 3 4 5 6 7 8 9 10 11 12 13 14 15 16 17 18 19 20 21 22 23 24 25 26 27 28 29 30 31 32 33
000
FTAK31 PANC 220116 AAA
TAFABE
TAF AMD
PABE 220116Z 2201/2224 04018KT 1/2SM SN BLSN OVC015 WS020/11030KT
      TEMPO 2201/2205 1/4SM +SN OVC008
     FM220600 04018KT 1SM -SN BR BKN007 WS020/18025KT
     FM220800 03014KT 4SM -SN BR SCT005 BKN010 WS020/21030KT
     FM221200 36012KT 5SM -SHSN SCT010 BKN025
     FM221500 04010KT P6SM BKN035=

USA.gov is the U.S. government's official web portal to all federal, state and local government web resources and services.